sensor_id;sensor_type;location;lat;lon;timestamp;temperature;humidity
12438;DHT22;6283;51.330;12.374;2023-06-22T00:02:15;22.60;5.60
12438;DHT22;6283;51.330;12.374;2023-06-22T00:04:41;22.50;6.90
12438;DHT22;6283;51.330;12.374;2023-06-22T00:07:07;22.50;12.20
12438;DHT22;6283;51.330;12.374;2023-06-22T00:09:33;22.50;17.80
12438;DHT22;6283;51.330;12.374;2023-06-22T00:11:58;22.50;22.70
12438;DHT22;6283;51.330;12.374;2023-06-22T00:14:25;22.50;41.30
12438;DHT22;6283;51.330;12.374;2023-06-22T00:16:51;22.50;30.70
12438;DHT22;6283;51.330;12.374;2023-06-22T00:19:22;22.50;40.10
12438;DHT22;6283;51.330;12.374;2023-06-22T00:21:49;22.50;39.20
12438;DHT22;6283;51.330;12.374;2023-06-22T00:24:21;22.50;43.50
12438;DHT22;6283;51.330;12.374;2023-06-22T00:26:50;22.50;48.10
12438;DHT22;6283;51.330;12.374;2023-06-22T00:29:16;22.50;53.00
12438;DHT22;6283;51.330;12.374;2023-06-22T00:31:42;22.50;53.40
12438;DHT22;6283;51.330;12.374;2023-06-22T00:34:11;22.50;60.30
12438;DHT22;6283;51.330;12.374;2023-06-22T00:36:36;22.40;67.00
12438;DHT22;6283;51.330;12.374;2023-06-22T00:39:02;22.40;74.40
12438;DHT22;6283;51.330;12.374;2023-06-22T00:41:28;22.30;84.80
12438;DHT22;6283;51.330;12.374;2023-06-22T00:43:55;22.30;93.80
12438;DHT22;6283;51.330;12.374;2023-06-22T00:46:22;22.30;99.90
12438;DHT22;6283;51.330;12.374;2023-06-22T00:48:48;22.30;99.90
12438;DHT22;6283;51.330;12.374;2023-06-22T00:51:14;22.20;99.90
12438;DHT22;6283;51.330;12.374;2023-06-22T00:53:40;22.20;99.90
12438;DHT22;6283;51.330;12.374;2023-06-22T00:56:08;22.20;99.90
12438;DHT22;6283;51.330;12.374;2023-06-22T00:58:36;22.20;99.90
12438;DHT22;6283;51.330;12.374;2023-06-22T01:01:01;22.20;99.90
12438;DHT22;6283;51.330;12.374;2023-06-22T01:03:27;22.10;99.90
12438;DHT22;6283;51.330;12.374;2023-06-22T01:06:00;22.10;99.90
12438;DHT22;6283;51.330;12.374;2023-06-22T01:08:37;22.10;99.90
12438;DHT22;6283;51.330;12.374;2023-06-22T01:11:22;22.10;99.90
12438;DHT22;6283;51.330;12.374;2023-06-22T01:16:25;22.10;99.90
12438;DHT22;6283;51.330;12.374;2023-06-22T01:18:55;22.00;99.90
12438;DHT22;6283;51.330;12.374;2023-06-22T01:21:23;22.00;99.90
12438;DHT22;6283;51.330;12.374;2023-06-22T01:29:06;21.80;99.90
12438;DHT22;6283;51.330;12.374;2023-06-22T01:31:34;21.70;99.90
12438;DHT22;6283;51.330;12.374;2023-06-22T01:34:04;21.70;99.90
12438;DHT22;6283;51.330;12.374;2023-06-22T01:36:31;21.60;99.90
12438;DHT22;6283;51.330;12.374;2023-06-22T01:38:59;21.60;99.90
12438;DHT22;6283;51.330;12.374;2023-06-22T01:41:26;21.60;99.90
12438;DHT22;6283;51.330;12.374;2023-06-22T01:43:53;21.60;99.90
12438;DHT22;6283;51.330;12.374;2023-06-22T01:46:21;21.60;99.90
12438;DHT22;6283;51.330;12.374;2023-06-22T01:48:47;21.60;99.90
12438;DHT22;6283;51.330;12.374;2023-06-22T01:51:13;21.60;99.90
12438;DHT22;6283;51.330;12.374;2023-06-22T01:53:39;21.60;99.90
12438;DHT22;6283;51.330;12.374;2023-06-22T01:56:05;21.60;99.90
12438;DHT22;6283;51.330;12.374;2023-06-22T01:58:31;21.60;99.90
12438;DHT22;6283;51.330;12.374;2023-06-22T02:01:05;21.60;99.90
12438;DHT22;6283;51.330;12.374;2023-06-22T02:03:38;21.60;99.90
12438;DHT22;6283;51.330;12.374;2023-06-22T02:06:10;21.60;99.90
12438;DHT22;6283;51.330;12.374;2023-06-22T02:08:48;21.50;99.90
12438;DHT22;6283;51.330;12.374;2023-06-22T02:11:17;21.50;99.90
12438;DHT22;6283;51.330;12.374;2023-06-22T02:13:44;21.50;99.90
12438;DHT22;6283;51.330;12.374;2023-06-22T02:16:14;21.50;99.90
12438;DHT22;6283;51.330;12.374;2023-06-22T02:18:51;21.50;99.90
12438;DHT22;6283;51.330;12.374;2023-06-22T02:21:20;21.50;99.90
12438;DHT22;6283;51.330;12.374;2023-06-22T02:23:46;21.50;99.90
12438;DHT22;6283;51.330;12.374;2023-06-22T02:26:12;21.40;99.90
12438;DHT22;6283;51.330;12.374;2023-06-22T02:28:38;21.40;99.90
12438;DHT22;6283;51.330;12.374;2023-06-22T02:31:04;21.30;99.90
12438;DHT22;6283;51.330;12.374;2023-06-22T02:33:30;21.40;99.90
12438;DHT22;6283;51.330;12.374;2023-06-22T02:35:55;21.40;99.90
12438;DHT22;6283;51.330;12.374;2023-06-22T02:38:24;21.40;99.90
12438;DHT22;6283;51.330;12.374;2023-06-22T02:40:50;21.40;99.90
12438;DHT22;6283;51.330;12.374;2023-06-22T02:43:16;21.40;99.90
12438;DHT22;6283;51.330;12.374;2023-06-22T02:45:42;21.30;99.90
12438;DHT22;6283;51.330;12.374;2023-06-22T02:48:07;21.30;99.90
12438;DHT22;6283;51.330;12.374;2023-06-22T02:50:33;21.20;99.90
12438;DHT22;6283;51.330;12.374;2023-06-22T02:52:59;21.20;99.90
12438;DHT22;6283;51.330;12.374;2023-06-22T02:55:24;21.20;99.90
12438;DHT22;6283;51.330;12.374;2023-06-22T02:57:50;21.20;1.00
12438;DHT22;6283;51.330;12.374;2023-06-22T03:00:18;21.20;1.00
12438;DHT22;6283;51.330;12.374;2023-06-22T03:02:46;21.10;1.00
12438;DHT22;6283;51.330;12.374;2023-06-22T03:05:12;21.10;1.00
12438;DHT22;6283;51.330;12.374;2023-06-22T03:07:42;21.10;1.00
12438;DHT22;6283;51.330;12.374;2023-06-22T03:10:13;21.10;1.00
12438;DHT22;6283;51.330;12.374;2023-06-22T03:12:39;21.10;1.00
12438;DHT22;6283;51.330;12.374;2023-06-22T03:15:06;21.00;1.00
12438;DHT22;6283;51.330;12.374;2023-06-22T03:17:33;21.10;1.00
12438;DHT22;6283;51.330;12.374;2023-06-22T03:19:59;21.00;1.00
12438;DHT22;6283;51.330;12.374;2023-06-22T03:22:24;21.00;1.00
12438;DHT22;6283;51.330;12.374;2023-06-22T03:24:50;21.00;1.00
12438;DHT22;6283;51.330;12.374;2023-06-22T03:27:16;21.00;1.00
12438;DHT22;6283;51.330;12.374;2023-06-22T03:29:41;21.00;1.00
12438;DHT22;6283;51.330;12.374;2023-06-22T03:32:07;21.00;1.00
12438;DHT22;6283;51.330;12.374;2023-06-22T03:34:33;21.00;1.00
12438;DHT22;6283;51.330;12.374;2023-06-22T03:36:59;21.00;1.00
12438;DHT22;6283;51.330;12.374;2023-06-22T03:39:25;21.10;1.00
12438;DHT22;6283;51.330;12.374;2023-06-22T03:41:50;21.10;1.00
12438;DHT22;6283;51.330;12.374;2023-06-22T03:44:16;21.10;1.00
12438;DHT22;6283;51.330;12.374;2023-06-22T03:46:42;21.10;1.00
12438;DHT22;6283;51.330;12.374;2023-06-22T03:49:07;21.10;1.00
12438;DHT22;6283;51.330;12.374;2023-06-22T03:51:33;21.10;1.00
12438;DHT22;6283;51.330;12.374;2023-06-22T03:53:59;21.20;1.00
12438;DHT22;6283;51.330;12.374;2023-06-22T03:56:24;21.20;1.00
12438;DHT22;6283;51.330;12.374;2023-06-22T03:58:50;21.20;1.00
12438;DHT22;6283;51.330;12.374;2023-06-22T04:01:16;21.20;1.00
12438;DHT22;6283;51.330;12.374;2023-06-22T04:03:42;21.30;1.00
12438;DHT22;6283;51.330;12.374;2023-06-22T04:06:08;21.30;1.00
12438;DHT22;6283;51.330;12.374;2023-06-22T04:08:34;21.40;1.00
12438;DHT22;6283;51.330;12.374;2023-06-22T04:10:59;21.40;1.00
12438;DHT22;6283;51.330;12.374;2023-06-22T04:13:25;21.40;1.00
12438;DHT22;6283;51.330;12.374;2023-06-22T04:15:51;21.50;1.00
12438;DHT22;6283;51.330;12.374;2023-06-22T04:18:16;21.50;1.00
12438;DHT22;6283;51.330;12.374;2023-06-22T04:20:42;21.60;1.00
12438;DHT22;6283;51.330;12.374;2023-06-22T04:23:12;21.60;1.00
12438;DHT22;6283;51.330;12.374;2023-06-22T04:25:39;21.70;1.00
12438;DHT22;6283;51.330;12.374;2023-06-22T04:28:04;21.70;1.00
12438;DHT22;6283;51.330;12.374;2023-06-22T04:30:32;21.80;1.00
12438;DHT22;6283;51.330;12.374;2023-06-22T04:32:58;21.80;1.00
12438;DHT22;6283;51.330;12.374;2023-06-22T04:35:24;21.90;1.00
12438;DHT22;6283;51.330;12.374;2023-06-22T04:37:50;22.00;1.00
12438;DHT22;6283;51.330;12.374;2023-06-22T04:40:23;22.10;1.00
12438;DHT22;6283;51.330;12.374;2023-06-22T04:42:48;22.10;1.00
12438;DHT22;6283;51.330;12.374;2023-06-22T04:45:23;22.10;1.00
12438;DHT22;6283;51.330;12.374;2023-06-22T04:47:49;22.20;1.00
12438;DHT22;6283;51.330;12.374;2023-06-22T04:50:15;22.20;1.00
12438;DHT22;6283;51.330;12.374;2023-06-22T04:52:40;22.20;1.00
12438;DHT22;6283;51.330;12.374;2023-06-22T04:55:06;22.20;1.00
12438;DHT22;6283;51.330;12.374;2023-06-22T04:57:32;22.20;1.00
12438;DHT22;6283;51.330;12.374;2023-06-22T05:00:03;22.30;1.00
12438;DHT22;6283;51.330;12.374;2023-06-22T05:02:41;22.30;1.00
12438;DHT22;6283;51.330;12.374;2023-06-22T05:05:07;22.30;1.00
12438;DHT22;6283;51.330;12.374;2023-06-22T05:07:34;22.30;1.00
12438;DHT22;6283;51.330;12.374;2023-06-22T05:10:03;22.30;1.00
12438;DHT22;6283;51.330;12.374;2023-06-22T05:12:33;22.40;1.00
12438;DHT22;6283;51.330;12.374;2023-06-22T05:14:58;22.50;1.00
12438;DHT22;6283;51.330;12.374;2023-06-22T05:17:24;22.60;1.00
12438;DHT22;6283;51.330;12.374;2023-06-22T05:19:50;22.80;1.00
12438;DHT22;6283;51.330;12.374;2023-06-22T05:22:16;23.10;1.00
12438;DHT22;6283;51.330;12.374;2023-06-22T05:24:42;23.20;1.00
12438;DHT22;6283;51.330;12.374;2023-06-22T05:27:09;23.30;99.90
12438;DHT22;6283;51.330;12.374;2023-06-22T05:29:35;23.50;99.90
12438;DHT22;6283;51.330;12.374;2023-06-22T05:32:01;23.60;99.90
12438;DHT22;6283;51.330;12.374;2023-06-22T05:34:26;23.70;99.90
12438;DHT22;6283;51.330;12.374;2023-06-22T05:36:52;23.70;99.90
12438;DHT22;6283;51.330;12.374;2023-06-22T05:39:18;23.70;99.90
12438;DHT22;6283;51.330;12.374;2023-06-22T05:41:45;23.70;99.90
12438;DHT22;6283;51.330;12.374;2023-06-22T05:44:10;23.80;99.90
12438;DHT22;6283;51.330;12.374;2023-06-22T05:46:37;23.80;99.90
12438;DHT22;6283;51.330;12.374;2023-06-22T05:49:02;23.80;99.90
12438;DHT22;6283;51.330;12.374;2023-06-22T05:51:28;23.80;99.90
12438;DHT22;6283;51.330;12.374;2023-06-22T05:53:53;23.80;99.90
12438;DHT22;6283;51.330;12.374;2023-06-22T05:56:20;23.80;99.90
12438;DHT22;6283;51.330;12.374;2023-06-22T05:58:46;23.80;99.90
12438;DHT22;6283;51.330;12.374;2023-06-22T06:01:11;23.90;99.90
12438;DHT22;6283;51.330;12.374;2023-06-22T06:03:37;24.00;99.90
12438;DHT22;6283;51.330;12.374;2023-06-22T06:06:09;24.20;99.90
12438;DHT22;6283;51.330;12.374;2023-06-22T06:08:36;24.30;99.90
12438;DHT22;6283;51.330;12.374;2023-06-22T06:11:02;24.40;99.90
12438;DHT22;6283;51.330;12.374;2023-06-22T06:13:28;24.40;99.90
12438;DHT22;6283;51.330;12.374;2023-06-22T06:15:53;24.50;99.90
12438;DHT22;6283;51.330;12.374;2023-06-22T06:18:22;24.50;99.90
12438;DHT22;6283;51.330;12.374;2023-06-22T06:20:48;24.60;99.90
12438;DHT22;6283;51.330;12.374;2023-06-22T06:23:14;24.70;99.90
12438;DHT22;6283;51.330;12.374;2023-06-22T06:25:39;24.70;99.90
12438;DHT22;6283;51.330;12.374;2023-06-22T06:28:05;24.90;99.90
12438;DHT22;6283;51.330;12.374;2023-06-22T06:30:31;25.00;94.20
12438;DHT22;6283;51.330;12.374;2023-06-22T06:32:57;25.00;72.70
12438;DHT22;6283;51.330;12.374;2023-06-22T06:35:23;25.10;56.10
12438;DHT22;6283;51.330;12.374;2023-06-22T06:37:50;25.10;50.00
12438;DHT22;6283;51.330;12.374;2023-06-22T06:40:17;25.20;41.60
12438;DHT22;6283;51.330;12.374;2023-06-22T06:42:46;25.30;31.00
12438;DHT22;6283;51.330;12.374;2023-06-22T06:45:14;25.50;20.30
12438;DHT22;6283;51.330;12.374;2023-06-22T06:47:40;25.60;12.90
12438;DHT22;6283;51.330;12.374;2023-06-22T06:50:07;25.70;6.80
12438;DHT22;6283;51.330;12.374;2023-06-22T06:52:32;25.90;2.30
12438;DHT22;6283;51.330;12.374;2023-06-22T06:54:58;26.10;1.00
12438;DHT22;6283;51.330;12.374;2023-06-22T06:57:24;26.20;1.00
12438;DHT22;6283;51.330;12.374;2023-06-22T06:59:54;26.30;1.00
12438;DHT22;6283;51.330;12.374;2023-06-22T07:02:22;26.40;1.00
12438;DHT22;6283;51.330;12.374;2023-06-22T07:04:48;26.50;1.00
12438;DHT22;6283;51.330;12.374;2023-06-22T07:07:14;26.70;1.00
12438;DHT22;6283;51.330;12.374;2023-06-22T07:09:40;26.90;1.00
12438;DHT22;6283;51.330;12.374;2023-06-22T07:12:06;27.10;1.00
12438;DHT22;6283;51.330;12.374;2023-06-22T07:14:32;27.20;1.00
12438;DHT22;6283;51.330;12.374;2023-06-22T07:16:58;27.30;1.00
12438;DHT22;6283;51.330;12.374;2023-06-22T07:19:25;27.30;1.00
12438;DHT22;6283;51.330;12.374;2023-06-22T07:21:52;27.30;1.00
12438;DHT22;6283;51.330;12.374;2023-06-22T07:24:19;27.30;1.00
12438;DHT22;6283;51.330;12.374;2023-06-22T07:26:46;27.30;1.00
12438;DHT22;6283;51.330;12.374;2023-06-22T07:29:12;27.30;1.00
12438;DHT22;6283;51.330;12.374;2023-06-22T07:31:37;27.30;1.00
12438;DHT22;6283;51.330;12.374;2023-06-22T07:34:05;27.30;1.00
12438;DHT22;6283;51.330;12.374;2023-06-22T07:36:31;27.30;1.00
12438;DHT22;6283;51.330;12.374;2023-06-22T07:38:56;27.30;1.00
12438;DHT22;6283;51.330;12.374;2023-06-22T07:41:22;27.30;1.00
12438;DHT22;6283;51.330;12.374;2023-06-22T07:43:48;27.30;1.00
12438;DHT22;6283;51.330;12.374;2023-06-22T07:46:13;27.40;1.00
12438;DHT22;6283;51.330;12.374;2023-06-22T07:48:39;27.40;1.00
12438;DHT22;6283;51.330;12.374;2023-06-22T07:51:07;27.50;1.00
12438;DHT22;6283;51.330;12.374;2023-06-22T07:53:32;27.60;1.00
12438;DHT22;6283;51.330;12.374;2023-06-22T07:55:58;27.60;1.00
12438;DHT22;6283;51.330;12.374;2023-06-22T07:58:24;27.60;1.00
12438;DHT22;6283;51.330;12.374;2023-06-22T08:00:49;27.70;1.00
12438;DHT22;6283;51.330;12.374;2023-06-22T08:03:15;27.70;1.00
12438;DHT22;6283;51.330;12.374;2023-06-22T08:05:41;27.70;1.00
12438;DHT22;6283;51.330;12.374;2023-06-22T08:08:07;27.80;1.00
12438;DHT22;6283;51.330;12.374;2023-06-22T08:10:32;27.90;1.00
12438;DHT22;6283;51.330;12.374;2023-06-22T08:12:58;28.00;1.00
12438;DHT22;6283;51.330;12.374;2023-06-22T08:15:25;28.00;1.00
12438;DHT22;6283;51.330;12.374;2023-06-22T08:17:51;28.10;1.00
12438;DHT22;6283;51.330;12.374;2023-06-22T08:20:18;28.10;1.00
12438;DHT22;6283;51.330;12.374;2023-06-22T08:22:44;28.00;1.00
12438;DHT22;6283;51.330;12.374;2023-06-22T08:25:10;28.00;1.00
12438;DHT22;6283;51.330;12.374;2023-06-22T08:27:36;28.00;1.00
12438;DHT22;6283;51.330;12.374;2023-06-22T08:30:02;28.10;1.00
12438;DHT22;6283;51.330;12.374;2023-06-22T08:32:29;28.10;1.00
12438;DHT22;6283;51.330;12.374;2023-06-22T08:34:56;28.10;1.00
12438;DHT22;6283;51.330;12.374;2023-06-22T08:37:22;28.20;1.00
12438;DHT22;6283;51.330;12.374;2023-06-22T08:39:50;28.30;1.00
12438;DHT22;6283;51.330;12.374;2023-06-22T08:42:16;28.40;1.00
12438;DHT22;6283;51.330;12.374;2023-06-22T08:44:42;28.50;1.00
12438;DHT22;6283;51.330;12.374;2023-06-22T08:47:10;28.50;1.00
12438;DHT22;6283;51.330;12.374;2023-06-22T08:49:35;28.70;1.00
12438;DHT22;6283;51.330;12.374;2023-06-22T08:52:01;28.80;1.00
12438;DHT22;6283;51.330;12.374;2023-06-22T08:54:27;29.00;1.00
12438;DHT22;6283;51.330;12.374;2023-06-22T08:56:52;29.00;1.00
12438;DHT22;6283;51.330;12.374;2023-06-22T08:59:18;29.10;1.00
12438;DHT22;6283;51.330;12.374;2023-06-22T09:01:44;29.10;1.00
12438;DHT22;6283;51.330;12.374;2023-06-22T09:04:11;29.00;1.00
12438;DHT22;6283;51.330;12.374;2023-06-22T09:06:37;29.10;1.00
12438;DHT22;6283;51.330;12.374;2023-06-22T09:09:06;29.10;1.00
12438;DHT22;6283;51.330;12.374;2023-06-22T09:11:32;29.10;1.00
12438;DHT22;6283;51.330;12.374;2023-06-22T09:13:58;29.20;1.00
12438;DHT22;6283;51.330;12.374;2023-06-22T09:16:23;29.20;1.00
12438;DHT22;6283;51.330;12.374;2023-06-22T09:18:49;29.20;1.00
12438;DHT22;6283;51.330;12.374;2023-06-22T09:21:15;29.20;1.00
12438;DHT22;6283;51.330;12.374;2023-06-22T09:23:40;29.30;1.00
12438;DHT22;6283;51.330;12.374;2023-06-22T09:26:08;29.30;1.00
12438;DHT22;6283;51.330;12.374;2023-06-22T09:28:34;29.40;1.00
12438;DHT22;6283;51.330;12.374;2023-06-22T09:31:00;29.50;1.00
12438;DHT22;6283;51.330;12.374;2023-06-22T09:33:26;29.60;1.00
12438;DHT22;6283;51.330;12.374;2023-06-22T09:35:52;29.60;1.00
12438;DHT22;6283;51.330;12.374;2023-06-22T09:38:17;29.70;1.00
12438;DHT22;6283;51.330;12.374;2023-06-22T09:40:43;29.70;1.00
12438;DHT22;6283;51.330;12.374;2023-06-22T09:43:09;29.80;1.00
12438;DHT22;6283;51.330;12.374;2023-06-22T09:45:34;29.80;1.00
12438;DHT22;6283;51.330;12.374;2023-06-22T09:48:00;29.90;1.00
12438;DHT22;6283;51.330;12.374;2023-06-22T09:50:25;30.00;1.00
12438;DHT22;6283;51.330;12.374;2023-06-22T09:52:51;30.00;1.00
12438;DHT22;6283;51.330;12.374;2023-06-22T09:55:21;30.00;1.00
12438;DHT22;6283;51.330;12.374;2023-06-22T09:57:46;30.00;1.00
12438;DHT22;6283;51.330;12.374;2023-06-22T10:00:13;30.10;1.00
12438;DHT22;6283;51.330;12.374;2023-06-22T10:02:41;30.20;1.00
12438;DHT22;6283;51.330;12.374;2023-06-22T10:05:07;30.40;1.00
12438;DHT22;6283;51.330;12.374;2023-06-22T10:07:33;30.60;1.00
12438;DHT22;6283;51.330;12.374;2023-06-22T10:09:59;30.60;1.00
12438;DHT22;6283;51.330;12.374;2023-06-22T10:12:27;30.70;1.00
12438;DHT22;6283;51.330;12.374;2023-06-22T10:14:53;30.80;1.00
12438;DHT22;6283;51.330;12.374;2023-06-22T10:17:18;30.90;1.00
12438;DHT22;6283;51.330;12.374;2023-06-22T10:19:44;30.90;1.00
12438;DHT22;6283;51.330;12.374;2023-06-22T10:22:09;30.90;1.00
12438;DHT22;6283;51.330;12.374;2023-06-22T10:24:35;30.80;1.00
12438;DHT22;6283;51.330;12.374;2023-06-22T10:27:01;30.70;1.00
12438;DHT22;6283;51.330;12.374;2023-06-22T10:29:26;30.70;1.00
12438;DHT22;6283;51.330;12.374;2023-06-22T10:31:52;30.70;1.00
12438;DHT22;6283;51.330;12.374;2023-06-22T10:34:18;30.70;1.00
12438;DHT22;6283;51.330;12.374;2023-06-22T10:36:43;30.80;1.00
12438;DHT22;6283;51.330;12.374;2023-06-22T10:39:11;30.80;1.00
12438;DHT22;6283;51.330;12.374;2023-06-22T10:41:37;30.70;1.00
12438;DHT22;6283;51.330;12.374;2023-06-22T10:44:03;30.70;1.00
12438;DHT22;6283;51.330;12.374;2023-06-22T10:46:28;30.70;1.00
12438;DHT22;6283;51.330;12.374;2023-06-22T10:48:54;30.60;1.00
12438;DHT22;6283;51.330;12.374;2023-06-22T10:51:22;30.70;1.00
12438;DHT22;6283;51.330;12.374;2023-06-22T10:53:48;30.80;1.00
12438;DHT22;6283;51.330;12.374;2023-06-22T10:56:13;30.90;1.00
12438;DHT22;6283;51.330;12.374;2023-06-22T10:58:39;31.10;1.00
12438;DHT22;6283;51.330;12.374;2023-06-22T11:01:05;31.10;1.00
12438;DHT22;6283;51.330;12.374;2023-06-22T11:03:30;31.30;1.00
12438;DHT22;6283;51.330;12.374;2023-06-22T11:05:56;31.40;1.00
12438;DHT22;6283;51.330;12.374;2023-06-22T11:08:21;31.50;1.00
12438;DHT22;6283;51.330;12.374;2023-06-22T11:10:51;31.50;1.00
12438;DHT22;6283;51.330;12.374;2023-06-22T11:13:16;31.50;1.00
12438;DHT22;6283;51.330;12.374;2023-06-22T11:15:42;31.50;1.00
12438;DHT22;6283;51.330;12.374;2023-06-22T11:18:08;31.60;1.00
12438;DHT22;6283;51.330;12.374;2023-06-22T11:20:34;31.70;1.00
12438;DHT22;6283;51.330;12.374;2023-06-22T11:23:06;31.70;1.00
12438;DHT22;6283;51.330;12.374;2023-06-22T11:25:33;31.90;1.00
12438;DHT22;6283;51.330;12.374;2023-06-22T11:28:04;32.00;1.00
12438;DHT22;6283;51.330;12.374;2023-06-22T11:30:30;32.30;1.00
12438;DHT22;6283;51.330;12.374;2023-06-22T11:32:59;32.40;1.00
12438;DHT22;6283;51.330;12.374;2023-06-22T11:35:25;32.70;1.00
12438;DHT22;6283;51.330;12.374;2023-06-22T11:37:51;32.80;1.00
12438;DHT22;6283;51.330;12.374;2023-06-22T11:40:16;32.90;1.00
12438;DHT22;6283;51.330;12.374;2023-06-22T11:42:43;32.90;1.00
12438;DHT22;6283;51.330;12.374;2023-06-22T11:45:09;32.90;1.00
12438;DHT22;6283;51.330;12.374;2023-06-22T11:47:35;32.80;1.00
12438;DHT22;6283;51.330;12.374;2023-06-22T11:50:02;32.90;1.00
12438;DHT22;6283;51.330;12.374;2023-06-22T11:52:27;33.10;1.00
12438;DHT22;6283;51.330;12.374;2023-06-22T11:54:53;33.30;1.00
12438;DHT22;6283;51.330;12.374;2023-06-22T11:57:19;33.60;1.00
12438;DHT22;6283;51.330;12.374;2023-06-22T11:59:44;33.80;1.00
12438;DHT22;6283;51.330;12.374;2023-06-22T12:02:10;34.00;1.00
12438;DHT22;6283;51.330;12.374;2023-06-22T12:04:36;34.20;1.00
12438;DHT22;6283;51.330;12.374;2023-06-22T12:07:01;34.40;1.00
12438;DHT22;6283;51.330;12.374;2023-06-22T12:09:27;34.60;1.00
12438;DHT22;6283;51.330;12.374;2023-06-22T12:11:53;34.70;1.00
12438;DHT22;6283;51.330;12.374;2023-06-22T12:14:19;34.90;1.00
12438;DHT22;6283;51.330;12.374;2023-06-22T12:16:45;35.10;1.00
12438;DHT22;6283;51.330;12.374;2023-06-22T12:19:11;35.40;1.00
12438;DHT22;6283;51.330;12.374;2023-06-22T12:21:37;35.60;1.00
12438;DHT22;6283;51.330;12.374;2023-06-22T12:24:03;35.50;1.00
12438;DHT22;6283;51.330;12.374;2023-06-22T12:26:28;35.60;1.00
12438;DHT22;6283;51.330;12.374;2023-06-22T12:28:54;35.70;1.00
12438;DHT22;6283;51.330;12.374;2023-06-22T12:31:20;35.70;1.00
12438;DHT22;6283;51.330;12.374;2023-06-22T12:33:46;35.60;1.00
12438;DHT22;6283;51.330;12.374;2023-06-22T12:36:11;35.70;1.00
12438;DHT22;6283;51.330;12.374;2023-06-22T12:38:37;35.90;1.00
12438;DHT22;6283;51.330;12.374;2023-06-22T12:41:03;36.20;1.00
12438;DHT22;6283;51.330;12.374;2023-06-22T12:43:28;36.40;1.00
12438;DHT22;6283;51.330;12.374;2023-06-22T12:45:54;36.60;1.00
12438;DHT22;6283;51.330;12.374;2023-06-22T12:48:21;36.80;1.00
12438;DHT22;6283;51.330;12.374;2023-06-22T12:50:47;36.90;1.00
12438;DHT22;6283;51.330;12.374;2023-06-22T12:53:13;37.20;1.00
12438;DHT22;6283;51.330;12.374;2023-06-22T12:55:39;37.30;1.00
12438;DHT22;6283;51.330;12.374;2023-06-22T12:58:04;37.50;1.00
12438;DHT22;6283;51.330;12.374;2023-06-22T13:00:30;37.80;1.00
12438;DHT22;6283;51.330;12.374;2023-06-22T13:02:56;38.00;1.00
12438;DHT22;6283;51.330;12.374;2023-06-22T13:05:21;38.10;1.00
12438;DHT22;6283;51.330;12.374;2023-06-22T13:07:48;38.40;1.00
12438;DHT22;6283;51.330;12.374;2023-06-22T13:10:14;38.40;1.00
12438;DHT22;6283;51.330;12.374;2023-06-22T13:12:39;38.30;1.00
12438;DHT22;6283;51.330;12.374;2023-06-22T13:15:05;38.20;1.00
12438;DHT22;6283;51.330;12.374;2023-06-22T13:17:31;38.00;1.00
12438;DHT22;6283;51.330;12.374;2023-06-22T13:19:57;37.80;1.00
12438;DHT22;6283;51.330;12.374;2023-06-22T13:22:28;37.60;1.00
12438;DHT22;6283;51.330;12.374;2023-06-22T13:24:57;37.80;1.00
12438;DHT22;6283;51.330;12.374;2023-06-22T13:27:23;38.00;1.00
12438;DHT22;6283;51.330;12.374;2023-06-22T13:29:50;38.30;1.00
12438;DHT22;6283;51.330;12.374;2023-06-22T13:32:15;38.60;1.00
12438;DHT22;6283;51.330;12.374;2023-06-22T13:34:42;38.90;1.00
12438;DHT22;6283;51.330;12.374;2023-06-22T13:37:07;39.10;1.00
12438;DHT22;6283;51.330;12.374;2023-06-22T13:39:33;39.30;1.00
12438;DHT22;6283;51.330;12.374;2023-06-22T13:41:59;39.40;1.00
12438;DHT22;6283;51.330;12.374;2023-06-22T13:44:24;39.60;1.00
12438;DHT22;6283;51.330;12.374;2023-06-22T13:46:57;39.60;1.00
12438;DHT22;6283;51.330;12.374;2023-06-22T13:49:23;39.70;1.00
12438;DHT22;6283;51.330;12.374;2023-06-22T13:51:48;39.80;1.00
12438;DHT22;6283;51.330;12.374;2023-06-22T13:54:15;39.70;1.00
12438;DHT22;6283;51.330;12.374;2023-06-22T13:56:40;39.70;1.00
12438;DHT22;6283;51.330;12.374;2023-06-22T13:59:06;39.50;1.00
12438;DHT22;6283;51.330;12.374;2023-06-22T14:01:36;39.00;1.00
12438;DHT22;6283;51.330;12.374;2023-06-22T14:04:02;38.60;1.00
12438;DHT22;6283;51.330;12.374;2023-06-22T14:06:27;38.50;1.00
12438;DHT22;6283;51.330;12.374;2023-06-22T14:08:53;38.60;1.00
12438;DHT22;6283;51.330;12.374;2023-06-22T14:11:19;38.70;1.00
12438;DHT22;6283;51.330;12.374;2023-06-22T14:13:45;38.80;1.00
12438;DHT22;6283;51.330;12.374;2023-06-22T14:16:10;38.90;1.00
12438;DHT22;6283;51.330;12.374;2023-06-22T14:18:39;38.90;1.00
12438;DHT22;6283;51.330;12.374;2023-06-22T14:21:05;39.00;1.00
12438;DHT22;6283;51.330;12.374;2023-06-22T14:23:30;39.00;1.00
12438;DHT22;6283;51.330;12.374;2023-06-22T14:25:56;39.00;1.00
12438;DHT22;6283;51.330;12.374;2023-06-22T14:28:22;39.20;1.00
12438;DHT22;6283;51.330;12.374;2023-06-22T14:30:47;39.00;1.00
12438;DHT22;6283;51.330;12.374;2023-06-22T14:33:13;38.80;1.00
12438;DHT22;6283;51.330;12.374;2023-06-22T14:35:39;38.90;1.00
12438;DHT22;6283;51.330;12.374;2023-06-22T14:38:04;39.10;1.00
12438;DHT22;6283;51.330;12.374;2023-06-22T14:40:30;39.20;1.00
12438;DHT22;6283;51.330;12.374;2023-06-22T14:42:56;39.20;1.00
12438;DHT22;6283;51.330;12.374;2023-06-22T14:45:22;39.10;1.00
12438;DHT22;6283;51.330;12.374;2023-06-22T14:47:48;38.90;1.00
12438;DHT22;6283;51.330;12.374;2023-06-22T14:50:14;39.00;1.00
12438;DHT22;6283;51.330;12.374;2023-06-22T14:52:40;39.10;1.00
12438;DHT22;6283;51.330;12.374;2023-06-22T14:55:06;39.20;1.00
12438;DHT22;6283;51.330;12.374;2023-06-22T14:57:32;39.40;1.00
12438;DHT22;6283;51.330;12.374;2023-06-22T14:59:57;39.20;1.00
12438;DHT22;6283;51.330;12.374;2023-06-22T15:02:23;39.00;1.00
12438;DHT22;6283;51.330;12.374;2023-06-22T15:04:48;38.80;1.00
12438;DHT22;6283;51.330;12.374;2023-06-22T15:07:14;38.70;1.00
12438;DHT22;6283;51.330;12.374;2023-06-22T15:09:40;38.50;1.00
12438;DHT22;6283;51.330;12.374;2023-06-22T15:12:08;38.40;1.00
12438;DHT22;6283;51.330;12.374;2023-06-22T15:14:39;38.20;1.00
12438;DHT22;6283;51.330;12.374;2023-06-22T15:17:06;38.20;1.00
12438;DHT22;6283;51.330;12.374;2023-06-22T15:19:37;38.20;1.00
12438;DHT22;6283;51.330;12.374;2023-06-22T15:22:06;38.10;1.00
12438;DHT22;6283;51.330;12.374;2023-06-22T15:24:33;38.00;1.00
12438;DHT22;6283;51.330;12.374;2023-06-22T15:26:59;37.80;1.00
12438;DHT22;6283;51.330;12.374;2023-06-22T15:29:26;37.50;1.00
12438;DHT22;6283;51.330;12.374;2023-06-22T15:31:52;37.20;1.00
12438;DHT22;6283;51.330;12.374;2023-06-22T15:34:18;36.90;1.00
12438;DHT22;6283;51.330;12.374;2023-06-22T15:36:44;36.70;1.00
12438;DHT22;6283;51.330;12.374;2023-06-22T15:39:10;36.80;1.00
12438;DHT22;6283;51.330;12.374;2023-06-22T15:41:36;36.80;1.00
12438;DHT22;6283;51.330;12.374;2023-06-22T15:44:04;36.80;1.00
12438;DHT22;6283;51.330;12.374;2023-06-22T15:46:30;37.10;1.00